Strona główna
METAR-TAF:

METAR-TAF

Lotnisko :

Rzym-Fiumicino, Włochy

Port lotniczy Rzym-Fiumicino

Szerokość geograficzna: 41-48N, Długość geograficzna: 012-14E, wysokość: 2 m

Aktualna obserwacja pogody

Raport powstał 21 minut temu, godzina 11:20 UTC
Wiatr 8 kt od południowo-południowy wschód
Temperatura 13°C
Wilgotność 41%
Ciśnienie 1020 hPa
Widzialność 10 km lub więcej
Mało chmury na wysokości 3500 ft

METAR: LIRF 181120Z 16008KT 9999 FEW035 13/00 Q1020 NOSIG

czas: 12:41 (11:41 UTC)

Prognoza

Raport powstał 41 minut temu, godzina 11:00 UTC
Prognoza ważna od 18 godzina 12 UTC do 19 godzina 18 UTC
Wiatr 10 kt od południe
Widzialność 10 km lub więcej
Brak chmur poniżej 1500 m i brak chmur cumulonimbus
Stopniowe zmiany
od 18 godzina 16 UTC do 18 godzina 18 UTC
Wiatr 10 kt od wschód
Stopniowe zmiany
od 19 godzina 07 UTC do 19 godzina 09 UTC
Wiatr 12 kt od południowy zachód

TAF: LIRF 181100Z 1812/1918 17010KT CAVOK BECMG 1816/1818 10010KT BECMG 1907/1909 22012KT

Obserwacja i prognoza pogody dla ponad 4000 lotnisk (raport METAR i TAF).

Dostępne stacje oznaczono żółtymi i czerwonymi punktami na mapie.

Najedź kursorem aby zobaczyć nazwę stacji.

Kliknij aby zobaczyć obserwacje i prognozy pogody.

Aby zmienić mapę: kliknij na zielony przycisk z czarnym krzyżykiem, aby powiększyć; na zielony przycisk z myślnikiem, aby pomniejszyć; na zielone strzałki, aby przejść do map sąsiednich.


METAR-TAF: